Secretary, Maryland
Current Conditions -  °F | °C
As of 4:07 PM on Tuesday 21 Oct 2014 (Local Time) from KCGE Reporting Station
Clear Clear  
Wind Chill: 72°   Ceiling: Unl
Heat Index: 72°   Visibility: 10mi
Dew Point: 45°   Wind: 0mph
Humidity: 38%   Direction: NA
Pressure: 29.8"   Gusts: NA
Location:  38.61°N, 75.95°W
Report Text: KCGE 212007Z AUTO 00000KT 10SM CLR 22/07 A2980 RMK AO1
Loading
Personal Weather Stations






























Interactive Weather Map
Tropical Storm Tracking
New forecast layout! Learn more

10-Day Weather Forecast

Advertisements
Track Severe Weather on mobile